PWSweather.com
Personal Weather Stations
Station Observations
KCTHAMDEN
Dunbar Hill, Hamden, CT 06514

Dunbar HillHamden, CT 06514

Lat: 41.365437, Lon: -72.956532

Elevation: 200

Station Type: Davis Vantage Pro2+

www.hamdenweather.com

High Low Average
Temperature 90.3°F32.4°C 69.9°F21.1°C 78.8°F26.0°C
Dew Point 79.1°F26.2°C 68.5°F20.3°C 73.4°F23.0°C
Winds 3.0 mph 4.8 kmh Calm Calm 1.0 mph SE1.6 kmh SE
Wind Gusts 9.0 mph14.5 kmh -- 1.0 mph1.6 kmh
Humidity 97% 65% 85%
Pressure 29.93 in1013.5 mb 29.80 in1009.1 mb -
Precipitation 0.14 in3.6 mm - -
Hour Temp Dew Point Humidity Winds Wind Gusts Pressure Precip Precip Rate Daily Precip Total
12:00 AM 73.6°F23.1°C 70.5°F21.4°C 90% Calm Calm -- 29.91 in1012.9 mb - 0.00 in0.0 mm 0.00 in0.0 mm
12:15 AM 73.3°F22.9°C 70.2°F21.2°C 90% Calm Calm -- 29.90 in1012.5 mb - 0.00 in0.0 mm 0.00 in0.0 mm
12:30 AM 72.9°F22.7°C 69.8°F21.0°C 90% Calm Calm -- 29.90 in1012.5 mb - 0.00 in0.0 mm 0.00 in0.0 mm
12:45 AM 72.5°F22.5°C 69.7°F20.9°C 91% Calm Calm -- 29.90 in1012.5 mb - 0.00 in0.0 mm 0.00 in0.0 mm
01:00 AM 72.2°F22.3°C 69.7°F20.9°C 92% Calm Calm -- 29.90 in1012.5 mb - 0.00 in0.0 mm 0.00 in0.0 mm
01:15 AM 71.9°F22.2°C 69.8°F21.0°C 93% Calm Calm -- 29.91 in1012.9 mb - 0.00 in0.0 mm 0.00 in0.0 mm
01:30 AM 71.7°F22.1°C 69.6°F20.9°C 93% Calm Calm -- 29.91 in1012.9 mb - 0.00 in0.0 mm 0.00 in0.0 mm
01:45 AM 71.5°F21.9°C 69.4°F20.8°C 93% Calm Calm -- 29.91 in1012.9 mb - 0.00 in0.0 mm 0.00 in0.0 mm
02:00 AM 71.3°F21.8°C 69.2°F20.7°C 93% Calm Calm -- 29.91 in1012.9 mb - 0.00 in0.0 mm 0.00 in0.0 mm
02:15 AM 71.1°F21.7°C 69.3°F20.7°C 94% Calm Calm -- 29.91 in1012.9 mb - 0.00 in0.0 mm 0.00 in0.0 mm
02:30 AM 70.9°F21.6°C 69.1°F20.6°C 94% Calm Calm -- 29.90 in1012.5 mb - 0.00 in0.0 mm 0.00 in0.0 mm
02:45 AM 70.8°F21.6°C 69.3°F20.7°C 95% Calm Calm -- 29.90 in1012.5 mb - 0.00 in0.0 mm 0.00 in0.0 mm
03:00 AM 70.6°F21.4°C 68.8°F20.4°C 94% Calm Calm -- 29.90 in1012.5 mb - 0.00 in0.0 mm 0.00 in0.0 mm
03:15 AM 70.7°F21.5°C 69.2°F20.7°C 95% Calm Calm -- 29.90 in1012.5 mb - 0.00 in0.0 mm 0.00 in0.0 mm
03:30 AM 70.6°F21.4°C 69.1°F20.6°C 95% Calm Calm -- 29.90 in1012.5 mb - 0.00 in0.0 mm 0.00 in0.0 mm
03:45 AM 70.6°F21.4°C 69.1°F20.6°C 95% Calm Calm -- 29.90 in1012.5 mb - 0.00 in0.0 mm 0.00 in0.0 mm
04:00 AM 70.5°F21.4°C 69.0°F20.6°C 95% Calm Calm -- 29.90 in1012.5 mb - 0.00 in0.0 mm 0.00 in0.0 mm
04:15 AM 70.3°F21.3°C 68.8°F20.4°C 95% Calm Calm -- 29.90 in1012.5 mb - 0.00 in0.0 mm 0.00 in0.0 mm
04:30 AM 70.1°F21.2°C 68.6°F20.3°C 95% Calm Calm -- 29.90 in1012.5 mb - 0.00 in0.0 mm 0.00 in0.0 mm
04:45 AM 70.0°F21.1°C 68.5°F20.3°C 95% Calm Calm -- 29.91 in1012.9 mb - 0.00 in0.0 mm 0.00 in0.0 mm
05:00 AM 70.0°F21.1°C 68.8°F20.4°C 96% Calm Calm -- 29.91 in1012.9 mb - 0.00 in0.0 mm 0.00 in0.0 mm
05:15 AM 69.9°F21.1°C 68.7°F20.4°C 96% Calm Calm -- 29.91 in1012.9 mb - 0.00 in0.0 mm 0.00 in0.0 mm
05:30 AM 70.1°F21.2°C 68.9°F20.5°C 96% Calm Calm -- 29.91 in1012.9 mb - 0.00 in0.0 mm 0.00 in0.0 mm
05:45 AM 70.1°F21.2°C 68.9°F20.5°C 96% Calm Calm -- 29.92 in1013.2 mb - 0.00 in0.0 mm 0.00 in0.0 mm
06:00 AM 70.3°F21.3°C 69.1°F20.6°C 96% Calm Calm -- 29.92 in1013.2 mb - 0.00 in0.0 mm 0.00 in0.0 mm
06:15 AM 70.7°F21.5°C 69.8°F21.0°C 97% Calm Calm -- 29.92 in1013.2 mb - 0.00 in0.0 mm 0.00 in0.0 mm
06:30 AM 71.7°F22.1°C 70.8°F21.6°C 97% Calm Calm -- 29.93 in1013.5 mb - 0.00 in0.0 mm 0.00 in0.0 mm
06:45 AM 72.5°F22.5°C 71.6°F22.0°C 97% Calm Calm -- 29.92 in1013.2 mb - 0.00 in0.0 mm 0.00 in0.0 mm
07:00 AM 74.2°F23.4°C 73.3°F22.9°C 97% Calm Calm -- 29.92 in1013.2 mb - 0.00 in0.0 mm 0.00 in0.0 mm
07:15 AM 75.6°F24.2°C 74.4°F23.6°C 96% Calm Calm -- 29.92 in1013.2 mb - 0.00 in0.0 mm 0.00 in0.0 mm
07:30 AM 77.3°F25.2°C 74.5°F23.6°C 91% 0.5 mph WSW0.8 kmh WSW 3.0 mph4.8 kmh 29.92 in1013.2 mb - 0.00 in0.0 mm 0.00 in0.0 mm
07:45 AM 79.1°F26.2°C 74.6°F23.7°C 86% 0.2 mph WSW0.3 kmh WSW 1.0 mph1.6 kmh 29.92 in1013.2 mb - 0.00 in0.0 mm 0.00 in0.0 mm
08:00 AM 80.8°F27.1°C 74.8°F23.8°C 82% 2.3 mph NE3.7 kmh NE 3.0 mph4.8 kmh 29.91 in1012.9 mb - 0.00 in0.0 mm 0.00 in0.0 mm
08:15 AM 81.8°F27.7°C 75.8°F24.3°C 82% 0.5 mph SSE0.8 kmh SSE 1.0 mph1.6 kmh 29.91 in1012.9 mb - 0.00 in0.0 mm 0.00 in0.0 mm
08:30 AM 82.7°F28.2°C 74.8°F23.8°C 77% 1.4 mph W2.3 kmh W 3.0 mph4.8 kmh 29.91 in1012.9 mb - 0.00 in0.0 mm 0.00 in0.0 mm
08:45 AM 83.0°F28.3°C 75.4°F24.1°C 78% 0.1 mph NNE0.2 kmh NNE 1.0 mph1.6 kmh 29.91 in1012.9 mb - 0.00 in0.0 mm 0.00 in0.0 mm
09:00 AM 83.2°F28.4°C 74.8°F23.8°C 76% 0.9 mph SE1.4 kmh SE 2.0 mph3.2 kmh 29.91 in1012.9 mb - 0.00 in0.0 mm 0.00 in0.0 mm
09:15 AM 83.3°F28.5°C 75.4°F24.1°C 77% 1.0 mph SE1.6 kmh SE 2.0 mph3.2 kmh 29.91 in1012.9 mb - 0.00 in0.0 mm 0.00 in0.0 mm
09:30 AM 83.9°F28.8°C 75.2°F24.0°C 75% 0.5 mph NNE0.8 kmh NNE 2.0 mph3.2 kmh 29.91 in1012.9 mb - 0.00 in0.0 mm 0.00 in0.0 mm
09:45 AM 83.8°F28.8°C 75.4°F24.1°C 76% 0.7 mph E1.1 kmh E 2.0 mph3.2 kmh 29.90 in1012.5 mb - 0.00 in0.0 mm 0.00 in0.0 mm
10:00 AM 85.1°F29.5°C 75.5°F24.2°C 73% 0.1 mph SE0.2 kmh SE 2.0 mph3.2 kmh 29.90 in1012.5 mb - 0.00 in0.0 mm 0.00 in0.0 mm
10:15 AM 86.2°F30.1°C 75.7°F24.3°C 71% 2.3 mph ESE3.7 kmh ESE 4.0 mph6.4 kmh 29.90 in1012.5 mb - 0.00 in0.0 mm 0.00 in0.0 mm
10:30 AM 86.4°F30.2°C 75.9°F24.4°C 71% 2.0 mph SSE3.2 kmh SSE 3.0 mph4.8 kmh 29.90 in1012.5 mb - 0.00 in0.0 mm 0.00 in0.0 mm
10:45 AM 86.7°F30.4°C 76.6°F24.8°C 72% 1.3 mph WSW2.1 kmh WSW 2.0 mph3.2 kmh 29.89 in1012.2 mb - 0.00 in0.0 mm 0.00 in0.0 mm
11:00 AM 86.6°F30.3°C 77.4°F25.2°C 74% 1.5 mph SW2.4 kmh SW 3.0 mph4.8 kmh 29.89 in1012.2 mb - 0.00 in0.0 mm 0.00 in0.0 mm
11:15 AM 86.8°F30.4°C 79.1°F26.2°C 78% 0.1 mph SE0.2 kmh SE 2.0 mph3.2 kmh 29.89 in1012.2 mb - 0.00 in0.0 mm 0.00 in0.0 mm
11:30 AM 86.7°F30.4°C 76.6°F24.8°C 72% 0.9 mph ENE1.4 kmh ENE 4.0 mph6.4 kmh 29.89 in1012.2 mb - 0.00 in0.0 mm 0.00 in0.0 mm
11:45 AM 87.5°F30.8°C 76.9°F24.9°C 71% 2.3 mph E3.7 kmh E 3.0 mph4.8 kmh 29.88 in1011.9 mb - 0.00 in0.0 mm 0.00 in0.0 mm
12:00 PM 87.8°F31.0°C 77.2°F25.1°C 71% 2.9 mph E4.7 kmh E 4.0 mph6.4 kmh 29.87 in1011.5 mb - 0.00 in0.0 mm 0.00 in0.0 mm
12:15 PM 88.1°F31.2°C 76.6°F24.8°C 69% 1.2 mph SE1.9 kmh SE 3.0 mph4.8 kmh 29.87 in1011.5 mb - 0.00 in0.0 mm 0.00 in0.0 mm
12:30 PM 87.9°F31.1°C 75.1°F23.9°C 66% 2.1 mph E3.4 kmh E 4.0 mph6.4 kmh 29.86 in1011.2 mb - 0.00 in0.0 mm 0.00 in0.0 mm
12:45 PM 88.1°F31.2°C 76.2°F24.6°C 68% 0.6 mph SSE1.0 kmh SSE 1.0 mph1.6 kmh 29.86 in1011.2 mb - 0.00 in0.0 mm 0.00 in0.0 mm
01:00 PM 88.8°F31.6°C 75.5°F24.2°C 65% 0.3 mph SE0.5 kmh SE 1.0 mph1.6 kmh 29.86 in1011.2 mb - 0.00 in0.0 mm 0.00 in0.0 mm
01:15 PM 88.9°F31.6°C 77.0°F25.0°C 68% 1.8 mph SSW2.9 kmh SSW 4.0 mph6.4 kmh 29.85 in1010.8 mb - 0.00 in0.0 mm 0.00 in0.0 mm
01:30 PM 89.5°F31.9°C 76.6°F24.8°C 66% 2.1 mph S3.4 kmh S 2.0 mph3.2 kmh 29.84 in1010.5 mb - 0.00 in0.0 mm 0.00 in0.0 mm
01:45 PM 90.1°F32.3°C 77.7°F25.4°C 67% 0.5 mph SSW0.8 kmh SSW 2.0 mph3.2 kmh 29.84 in1010.5 mb - 0.00 in0.0 mm 0.00 in0.0 mm
02:00 PM 90.3°F32.4°C 77.4°F25.2°C 66% 1.5 mph ENE2.4 kmh ENE 2.0 mph3.2 kmh 29.84 in1010.5 mb - 0.00 in0.0 mm 0.00 in0.0 mm
02:15 PM 89.7°F32.1°C 76.8°F24.9°C 66% 1.8 mph ESE2.9 kmh ESE 4.0 mph6.4 kmh 29.83 in1010.2 mb - 0.00 in0.0 mm 0.00 in0.0 mm
02:30 PM 89.4°F31.9°C 76.5°F24.7°C 66% 3.0 mph SE4.8 kmh SE 9.0 mph14.5 kmh 29.82 in1009.8 mb - 0.00 in0.0 mm 0.00 in0.0 mm
02:45 PM 89.6°F32.0°C 77.7°F25.4°C 68% 0.5 mph E0.8 kmh E 2.0 mph3.2 kmh 29.82 in1009.8 mb - 0.00 in0.0 mm 0.00 in0.0 mm
03:00 PM 89.3°F31.8°C 77.3°F25.2°C 68% 1.2 mph E1.9 kmh E 3.0 mph4.8 kmh 29.82 in1009.8 mb - 0.00 in0.0 mm 0.00 in0.0 mm
03:15 PM 88.7°F31.5°C 77.2°F25.1°C 69% 0.8 mph SSE1.3 kmh SSE 2.0 mph3.2 kmh 29.81 in1009.5 mb - 0.00 in0.0 mm 0.00 in0.0 mm
03:30 PM 88.6°F31.4°C 77.6°F25.3°C 70% 1.4 mph SE2.3 kmh SE 5.0 mph8.0 kmh 29.81 in1009.5 mb - 0.00 in0.0 mm 0.00 in0.0 mm
03:45 PM 88.4°F31.3°C 78.2°F25.7°C 72% 0.6 mph SE1.0 kmh SE 1.0 mph1.6 kmh 29.82 in1009.8 mb - 0.00 in0.0 mm 0.00 in0.0 mm
04:00 PM 88.6°F31.4°C 78.4°F25.8°C 72% 2.5 mph E4.0 kmh E 4.0 mph6.4 kmh 29.81 in1009.5 mb - 0.00 in0.0 mm 0.00 in0.0 mm
04:15 PM 88.0°F31.1°C 77.0°F25.0°C 70% 2.1 mph E3.4 kmh E 2.0 mph3.2 kmh 29.81 in1009.5 mb - 0.00 in0.0 mm 0.00 in0.0 mm
04:30 PM 87.8°F31.0°C 77.6°F25.3°C 72% 1.3 mph S2.1 kmh S 3.0 mph4.8 kmh 29.81 in1009.5 mb - 0.00 in0.0 mm 0.00 in0.0 mm
04:45 PM 86.9°F30.5°C 77.2°F25.1°C 73% 0.1 mph S0.2 kmh S -- 29.81 in1009.5 mb - 0.00 in0.0 mm 0.00 in0.0 mm
05:00 PM 85.9°F29.9°C 77.4°F25.2°C 76% 0.8 mph SSW1.3 kmh SSW 3.0 mph4.8 kmh 29.81 in1009.5 mb - 0.00 in0.0 mm 0.00 in0.0 mm
05:15 PM 83.1°F28.4°C 72.8°F22.7°C 71% 0.4 mph NE0.6 kmh NE 1.0 mph1.6 kmh 29.82 in1009.8 mb - 0.00 in0.0 mm 0.00 in0.0 mm
05:30 PM 81.9°F27.7°C 72.0°F22.2°C 72% 0.2 mph SW0.3 kmh SW 2.0 mph3.2 kmh 29.82 in1009.8 mb - 0.00 in0.0 mm 0.00 in0.0 mm
05:45 PM 80.9°F27.2°C 72.3°F22.4°C 75% Calm Calm -- 29.80 in1009.1 mb - 0.00 in0.0 mm 0.00 in0.0 mm
06:00 PM 79.5°F26.4°C 73.5°F23.1°C 82% Calm Calm 1.0 mph1.6 kmh 29.82 in1009.8 mb - 0.01 in0.3 mm 0.01 in0.3 mm
06:15 PM 78.2°F25.7°C 73.3°F22.9°C 85% 0.1 mph WSW0.2 kmh WSW 1.0 mph1.6 kmh 29.82 in1009.8 mb - 0.01 in0.3 mm 0.02 in0.5 mm
06:30 PM 77.0°F25.0°C 73.2°F22.9°C 88% Calm Calm -- 29.82 in1009.8 mb - 0.06 in1.5 mm 0.08 in2.0 mm
06:45 PM 76.5°F24.7°C 73.3°F22.9°C 90% Calm Calm -- 29.82 in1009.8 mb - 0.04 in1.0 mm 0.12 in3.0 mm
07:00 PM 76.0°F24.4°C 73.2°F22.9°C 91% Calm Calm -- 29.82 in1009.8 mb - 0.00 in0.0 mm 0.12 in3.0 mm
07:15 PM 75.7°F24.3°C 73.5°F23.1°C 93% Calm Calm -- 29.82 in1009.8 mb - 0.00 in0.0 mm 0.12 in3.0 mm
07:30 PM 75.5°F24.2°C 73.4°F23.0°C 93% Calm Calm -- 29.82 in1009.8 mb - 0.00 in0.0 mm 0.12 in3.0 mm
07:45 PM 75.5°F24.2°C 73.7°F23.2°C 94% Calm Calm -- 29.82 in1009.8 mb - 0.00 in0.0 mm 0.12 in3.0 mm
08:00 PM 75.3°F24.1°C 73.5°F23.1°C 94% Calm Calm -- 29.82 in1009.8 mb - 0.01 in0.3 mm 0.13 in3.3 mm
08:15 PM 75.3°F24.1°C 73.5°F23.1°C 94% Calm Calm -- 29.82 in1009.8 mb - 0.01 in0.3 mm 0.14 in3.6 mm
08:30 PM 75.1°F23.9°C 73.6°F23.1°C 95% Calm Calm -- 29.82 in1009.8 mb - 0.00 in0.0 mm 0.14 in3.6 mm
08:45 PM 75.1°F23.9°C 73.6°F23.1°C 95% Calm Calm -- 29.82 in1009.8 mb - 0.00 in0.0 mm 0.14 in3.6 mm
09:00 PM 74.9°F23.8°C 73.4°F23.0°C 95% Calm Calm -- 29.82 in1009.8 mb - 0.00 in0.0 mm 0.14 in3.6 mm
09:15 PM 74.8°F23.8°C 73.3°F22.9°C 95% Calm Calm -- 29.82 in1009.8 mb - 0.00 in0.0 mm 0.14 in3.6 mm
09:30 PM 74.7°F23.7°C 73.2°F22.9°C 95% Calm Calm -- 29.81 in1009.5 mb - 0.00 in0.0 mm 0.14 in3.6 mm
09:45 PM 74.6°F23.7°C 73.1°F22.8°C 95% Calm Calm -- 29.81 in1009.5 mb - 0.00 in0.0 mm 0.14 in3.6 mm
10:00 PM 74.3°F23.5°C 72.8°F22.7°C 95% Calm Calm -- 29.81 in1009.5 mb - 0.00 in0.0 mm 0.14 in3.6 mm
10:15 PM 74.1°F23.4°C 72.6°F22.6°C 95% Calm Calm -- 29.81 in1009.5 mb - 0.00 in0.0 mm 0.14 in3.6 mm
10:30 PM 73.9°F23.3°C 72.4°F22.4°C 95% Calm Calm -- 29.80 in1009.1 mb - 0.00 in0.0 mm 0.14 in3.6 mm
10:45 PM 73.7°F23.2°C 72.5°F22.5°C 96% Calm Calm -- 29.80 in1009.1 mb - 0.00 in0.0 mm 0.14 in3.6 mm
11:00 PM 73.7°F23.2°C 72.5°F22.5°C 96% Calm Calm -- 29.80 in1009.1 mb - 0.00 in0.0 mm 0.14 in3.6 mm
11:15 PM 73.7°F23.2°C 72.5°F22.5°C 96% Calm Calm -- 29.80 in1009.1 mb - 0.00 in0.0 mm 0.14 in3.6 mm
11:30 PM 73.9°F23.3°C 72.7°F22.6°C 96% Calm Calm -- 29.80 in1009.1 mb - 0.00 in0.0 mm 0.14 in3.6 mm
11:45 PM 74.2°F23.4°C 73.0°F22.8°C 96% 1.2 mph N1.9 kmh N 3.0 mph4.8 kmh 29.81 in1009.5 mb - 0.00 in0.0 mm 0.14 in3.6 mm